sensor_id;sensor_type;location;lat;lon;timestamp;temperature;humidity
5461;DHT22;2753;49.196;8.286;2022-08-21T00:01:06;21.90;70.90
5461;DHT22;2753;49.196;8.286;2022-08-21T00:03:35;21.90;70.80
5461;DHT22;2753;49.196;8.286;2022-08-21T00:06:01;21.80;70.30
5461;DHT22;2753;49.196;8.286;2022-08-21T00:08:27;21.80;70.00
5461;DHT22;2753;49.196;8.286;2022-08-21T00:10:53;21.70;69.40
5461;DHT22;2753;49.196;8.286;2022-08-21T00:13:20;21.60;69.40
5461;DHT22;2753;49.196;8.286;2022-08-21T00:15:46;21.60;69.40
5461;DHT22;2753;49.196;8.286;2022-08-21T00:18:12;21.50;69.40
5461;DHT22;2753;49.196;8.286;2022-08-21T00:20:39;21.40;69.70
5461;DHT22;2753;49.196;8.286;2022-08-21T00:23:05;21.20;70.00
5461;DHT22;2753;49.196;8.286;2022-08-21T00:25:31;21.20;70.10
5461;DHT22;2753;49.196;8.286;2022-08-21T00:27:56;21.20;70.20
5461;DHT22;2753;49.196;8.286;2022-08-21T00:30:24;21.20;70.40
5461;DHT22;2753;49.196;8.286;2022-08-21T00:32:51;21.10;70.40
5461;DHT22;2753;49.196;8.286;2022-08-21T00:35:22;21.10;70.40
5461;DHT22;2753;49.196;8.286;2022-08-21T00:37:48;21.10;70.30
5461;DHT22;2753;49.196;8.286;2022-08-21T00:40:18;21.10;70.20
5461;DHT22;2753;49.196;8.286;2022-08-21T00:42:45;21.10;70.50
5461;DHT22;2753;49.196;8.286;2022-08-21T00:45:12;21.00;70.70
5461;DHT22;2753;49.196;8.286;2022-08-21T00:47:38;20.90;70.90
5461;DHT22;2753;49.196;8.286;2022-08-21T00:50:06;20.90;70.90
5461;DHT22;2753;49.196;8.286;2022-08-21T00:52:34;21.00;70.60
5461;DHT22;2753;49.196;8.286;2022-08-21T00:55:01;21.00;70.40
5461;DHT22;2753;49.196;8.286;2022-08-21T00:57:34;21.10;70.20
5461;DHT22;2753;49.196;8.286;2022-08-21T01:00:03;21.10;70.50
5461;DHT22;2753;49.196;8.286;2022-08-21T01:02:30;21.00;70.60
5461;DHT22;2753;49.196;8.286;2022-08-21T01:04:55;20.90;70.70
5461;DHT22;2753;49.196;8.286;2022-08-21T01:07:21;20.80;71.00
5461;DHT22;2753;49.196;8.286;2022-08-21T01:09:47;20.80;71.00
5461;DHT22;2753;49.196;8.286;2022-08-21T01:12:13;20.80;70.90
5461;DHT22;2753;49.196;8.286;2022-08-21T01:14:41;20.80;70.90
5461;DHT22;2753;49.196;8.286;2022-08-21T01:17:08;20.80;71.00
5461;DHT22;2753;49.196;8.286;2022-08-21T01:19:36;20.70;71.20
5461;DHT22;2753;49.196;8.286;2022-08-21T01:22:01;20.60;71.30
5461;DHT22;2753;49.196;8.286;2022-08-21T01:24:27;20.60;71.60
5461;DHT22;2753;49.196;8.286;2022-08-21T01:26:54;20.60;71.60
5461;DHT22;2753;49.196;8.286;2022-08-21T01:29:30;20.70;71.60
5461;DHT22;2753;49.196;8.286;2022-08-21T01:31:58;20.60;71.40
5461;DHT22;2753;49.196;8.286;2022-08-21T01:34:24;20.60;71.30
5461;DHT22;2753;49.196;8.286;2022-08-21T01:36:50;20.50;71.70
5461;DHT22;2753;49.196;8.286;2022-08-21T01:39:16;20.40;72.00
5461;DHT22;2753;49.196;8.286;2022-08-21T01:41:42;20.20;72.40
5461;DHT22;2753;49.196;8.286;2022-08-21T01:44:08;20.20;72.90
5461;DHT22;2753;49.196;8.286;2022-08-21T01:46:34;20.00;73.40
5461;DHT22;2753;49.196;8.286;2022-08-21T01:49:00;19.90;73.40
5461;DHT22;2753;49.196;8.286;2022-08-21T01:51:26;19.70;73.80
5461;DHT22;2753;49.196;8.286;2022-08-21T01:53:51;19.60;74.10
5461;DHT22;2753;49.196;8.286;2022-08-21T01:56:17;19.60;73.90
5461;DHT22;2753;49.196;8.286;2022-08-21T01:58:45;19.60;73.90
5461;DHT22;2753;49.196;8.286;2022-08-21T02:01:11;19.60;73.80
5461;DHT22;2753;49.196;8.286;2022-08-21T02:03:37;19.60;73.80
5461;DHT22;2753;49.196;8.286;2022-08-21T02:06:04;19.50;74.80
5461;DHT22;2753;49.196;8.286;2022-08-21T02:08:31;19.30;74.90
5461;DHT22;2753;49.196;8.286;2022-08-21T02:10:57;19.30;74.70
5461;DHT22;2753;49.196;8.286;2022-08-21T02:13:23;19.50;74.40
5461;DHT22;2753;49.196;8.286;2022-08-21T02:15:48;19.60;74.00
5461;DHT22;2753;49.196;8.286;2022-08-21T02:18:14;19.70;73.60
5461;DHT22;2753;49.196;8.286;2022-08-21T02:20:43;19.80;73.60
5461;DHT22;2753;49.196;8.286;2022-08-21T02:23:10;19.80;73.40
5461;DHT22;2753;49.196;8.286;2022-08-21T02:25:37;19.80;74.00
5461;DHT22;2753;49.196;8.286;2022-08-21T02:28:09;19.70;74.40
5461;DHT22;2753;49.196;8.286;2022-08-21T02:30:40;19.60;74.50
5461;DHT22;2753;49.196;8.286;2022-08-21T02:33:07;19.60;74.80
5461;DHT22;2753;49.196;8.286;2022-08-21T02:35:33;19.80;75.10
5461;DHT22;2753;49.196;8.286;2022-08-21T02:38:02;19.40;74.80
5461;DHT22;2753;49.196;8.286;2022-08-21T02:40:31;19.60;74.60
5461;DHT22;2753;49.196;8.286;2022-08-21T02:42:58;19.60;74.60
5461;DHT22;2753;49.196;8.286;2022-08-21T02:45:24;19.50;74.90
5461;DHT22;2753;49.196;8.286;2022-08-21T02:47:52;19.40;75.10
5461;DHT22;2753;49.196;8.286;2022-08-21T02:50:22;19.40;75.40
5461;DHT22;2753;49.196;8.286;2022-08-21T02:52:49;19.40;75.10
5461;DHT22;2753;49.196;8.286;2022-08-21T02:55:15;19.40;75.10
5461;DHT22;2753;49.196;8.286;2022-08-21T02:57:41;19.40;74.70
5461;DHT22;2753;49.196;8.286;2022-08-21T03:00:07;19.40;75.00
5461;DHT22;2753;49.196;8.286;2022-08-21T03:02:36;19.40;75.40
5461;DHT22;2753;49.196;8.286;2022-08-21T03:05:01;19.40;75.80
5461;DHT22;2753;49.196;8.286;2022-08-21T03:07:27;19.30;75.60
5461;DHT22;2753;49.196;8.286;2022-08-21T03:09:53;19.30;75.50
5461;DHT22;2753;49.196;8.286;2022-08-21T03:12:18;19.30;75.40
5461;DHT22;2753;49.196;8.286;2022-08-21T03:14:44;19.30;75.70
5461;DHT22;2753;49.196;8.286;2022-08-21T03:17:09;19.30;75.40
5461;DHT22;2753;49.196;8.286;2022-08-21T03:19:35;19.30;75.90
5461;DHT22;2753;49.196;8.286;2022-08-21T03:22:01;19.20;76.00
5461;DHT22;2753;49.196;8.286;2022-08-21T03:24:27;19.00;76.50
5461;DHT22;2753;49.196;8.286;2022-08-21T03:26:52;19.10;76.00
5461;DHT22;2753;49.196;8.286;2022-08-21T03:29:18;19.10;77.20
5461;DHT22;2753;49.196;8.286;2022-08-21T03:31:44;19.00;76.60
5461;DHT22;2753;49.196;8.286;2022-08-21T03:34:09;18.90;76.70
5461;DHT22;2753;49.196;8.286;2022-08-21T03:36:35;18.90;76.80
5461;DHT22;2753;49.196;8.286;2022-08-21T03:39:01;18.80;76.90
5461;DHT22;2753;49.196;8.286;2022-08-21T03:41:27;18.80;77.00
5461;DHT22;2753;49.196;8.286;2022-08-21T03:43:52;18.70;77.00
5461;DHT22;2753;49.196;8.286;2022-08-21T03:46:18;18.70;77.30
5461;DHT22;2753;49.196;8.286;2022-08-21T03:48:44;18.60;77.30
5461;DHT22;2753;49.196;8.286;2022-08-21T03:51:10;18.70;77.50
5461;DHT22;2753;49.196;8.286;2022-08-21T03:53:36;18.50;77.80
5461;DHT22;2753;49.196;8.286;2022-08-21T03:56:02;18.50;77.90
5461;DHT22;2753;49.196;8.286;2022-08-21T03:58:28;18.30;78.00
5461;DHT22;2753;49.196;8.286;2022-08-21T04:00:56;18.30;78.40
5461;DHT22;2753;49.196;8.286;2022-08-21T04:03:23;18.30;78.00
5461;DHT22;2753;49.196;8.286;2022-08-21T04:05:49;18.50;77.50
5461;DHT22;2753;49.196;8.286;2022-08-21T04:08:16;18.60;77.20
5461;DHT22;2753;49.196;8.286;2022-08-21T04:10:46;18.60;76.80
5461;DHT22;2753;49.196;8.286;2022-08-21T04:13:12;18.50;77.20
5461;DHT22;2753;49.196;8.286;2022-08-21T04:15:39;18.40;77.60
5461;DHT22;2753;49.196;8.286;2022-08-21T04:18:06;18.20;77.90
5461;DHT22;2753;49.196;8.286;2022-08-21T04:20:32;18.20;78.20
5461;DHT22;2753;49.196;8.286;2022-08-21T04:22:58;18.20;78.10
5461;DHT22;2753;49.196;8.286;2022-08-21T04:25:24;18.10;78.30
5461;DHT22;2753;49.196;8.286;2022-08-21T04:27:51;18.10;78.40
5461;DHT22;2753;49.196;8.286;2022-08-21T04:30:17;18.10;78.50
5461;DHT22;2753;49.196;8.286;2022-08-21T04:32:48;18.10;78.40
5461;DHT22;2753;49.196;8.286;2022-08-21T04:35:16;18.00;78.40
5461;DHT22;2753;49.196;8.286;2022-08-21T04:37:41;18.10;78.40
5461;DHT22;2753;49.196;8.286;2022-08-21T04:40:08;18.10;78.40
5461;DHT22;2753;49.196;8.286;2022-08-21T04:42:42;18.10;78.00
5461;DHT22;2753;49.196;8.286;2022-08-21T04:45:09;18.20;77.60
5461;DHT22;2753;49.196;8.286;2022-08-21T04:47:34;18.30;77.70
5461;DHT22;2753;49.196;8.286;2022-08-21T04:50:00;18.20;78.00
5461;DHT22;2753;49.196;8.286;2022-08-21T04:52:26;18.30;77.80
5461;DHT22;2753;49.196;8.286;2022-08-21T04:54:51;18.30;77.60
5461;DHT22;2753;49.196;8.286;2022-08-21T04:57:17;18.20;77.90
5461;DHT22;2753;49.196;8.286;2022-08-21T04:59:49;18.20;78.10
5461;DHT22;2753;49.196;8.286;2022-08-21T05:02:16;18.20;78.30
5461;DHT22;2753;49.196;8.286;2022-08-21T05:04:49;18.10;78.60
5461;DHT22;2753;49.196;8.286;2022-08-21T05:07:19;18.00;79.10
5461;DHT22;2753;49.196;8.286;2022-08-21T05:09:46;18.00;78.80
5461;DHT22;2753;49.196;8.286;2022-08-21T05:12:12;18.00;79.10
5461;DHT22;2753;49.196;8.286;2022-08-21T05:14:38;18.00;79.30
5461;DHT22;2753;49.196;8.286;2022-08-21T05:51:12;17.90;80.40
5461;DHT22;2753;49.196;8.286;2022-08-21T05:53:39;17.90;80.30
5461;DHT22;2753;49.196;8.286;2022-08-21T05:56:05;18.00;80.30
5461;DHT22;2753;49.196;8.286;2022-08-21T05:58:33;18.10;80.80
5461;DHT22;2753;49.196;8.286;2022-08-21T06:01:00;18.10;79.80
5461;DHT22;2753;49.196;8.286;2022-08-21T06:03:32;18.20;80.00
5461;DHT22;2753;49.196;8.286;2022-08-21T06:05:59;18.00;81.20
5461;DHT22;2753;49.196;8.286;2022-08-21T06:08:25;18.10;81.20
5461;DHT22;2753;49.196;8.286;2022-08-21T06:10:52;18.00;81.70
5461;DHT22;2753;49.196;8.286;2022-08-21T06:13:20;18.00;81.60
5461;DHT22;2753;49.196;8.286;2022-08-21T06:15:47;18.00;81.90
5461;DHT22;2753;49.196;8.286;2022-08-21T06:18:13;18.10;82.20
5461;DHT22;2753;49.196;8.286;2022-08-21T06:20:39;18.30;81.50
5461;DHT22;2753;49.196;8.286;2022-08-21T06:23:05;18.20;81.80
5461;DHT22;2753;49.196;8.286;2022-08-21T06:28:07;18.30;80.90
5461;DHT22;2753;49.196;8.286;2022-08-21T06:30:33;18.60;80.20
5461;DHT22;2753;49.196;8.286;2022-08-21T06:32:59;19.20;80.70
5461;DHT22;2753;49.196;8.286;2022-08-21T06:35:25;20.50;77.40
5461;DHT22;2753;49.196;8.286;2022-08-21T06:37:51;21.80;73.50
5461;DHT22;2753;49.196;8.286;2022-08-21T06:40:17;22.70;70.40
5461;DHT22;2753;49.196;8.286;2022-08-21T06:42:43;22.80;69.10
5461;DHT22;2753;49.196;8.286;2022-08-21T06:45:09;22.20;70.00
5461;DHT22;2753;49.196;8.286;2022-08-21T06:47:35;21.50;71.90
5461;DHT22;2753;49.196;8.286;2022-08-21T06:50:01;21.00;73.90
5461;DHT22;2753;49.196;8.286;2022-08-21T06:52:26;21.20;73.70
5461;DHT22;2753;49.196;8.286;2022-08-21T06:54:52;21.60;72.70
5461;DHT22;2753;49.196;8.286;2022-08-21T06:57:18;21.90;71.90
5461;DHT22;2753;49.196;8.286;2022-08-21T06:59:43;22.20;71.70
5461;DHT22;2753;49.196;8.286;2022-08-21T07:02:09;22.30;71.30
5461;DHT22;2753;49.196;8.286;2022-08-21T07:04:34;22.10;71.60
5461;DHT22;2753;49.196;8.286;2022-08-21T07:07:00;22.00;72.20
5461;DHT22;2753;49.196;8.286;2022-08-21T07:09:26;21.80;72.30
5461;DHT22;2753;49.196;8.286;2022-08-21T07:11:53;21.70;72.60
5461;DHT22;2753;49.196;8.286;2022-08-21T07:14:20;21.60;73.20
5461;DHT22;2753;49.196;8.286;2022-08-21T07:16:47;21.60;73.70
5461;DHT22;2753;49.196;8.286;2022-08-21T07:19:13;21.60;74.70
5461;DHT22;2753;49.196;8.286;2022-08-21T07:21:39;21.80;73.30
5461;DHT22;2753;49.196;8.286;2022-08-21T07:24:04;21.80;73.70
5461;DHT22;2753;49.196;8.286;2022-08-21T07:26:30;22.20;73.10
5461;DHT22;2753;49.196;8.286;2022-08-21T07:28:56;22.30;72.90
5461;DHT22;2753;49.196;8.286;2022-08-21T07:31:23;22.30;72.20
5461;DHT22;2753;49.196;8.286;2022-08-21T07:33:49;22.30;72.60
5461;DHT22;2753;49.196;8.286;2022-08-21T07:36:15;22.30;72.60
5461;DHT22;2753;49.196;8.286;2022-08-21T07:38:41;22.20;72.50
5461;DHT22;2753;49.196;8.286;2022-08-21T07:41:17;22.40;72.50
5461;DHT22;2753;49.196;8.286;2022-08-21T07:43:44;22.40;72.70
5461;DHT22;2753;49.196;8.286;2022-08-21T07:46:10;22.50;71.70
5461;DHT22;2753;49.196;8.286;2022-08-21T07:48:36;22.50;71.30
5461;DHT22;2753;49.196;8.286;2022-08-21T07:51:06;22.70;71.50
5461;DHT22;2753;49.196;8.286;2022-08-21T07:53:32;22.80;70.50
5461;DHT22;2753;49.196;8.286;2022-08-21T07:55:58;23.00;71.00
5461;DHT22;2753;49.196;8.286;2022-08-21T07:58:24;23.00;68.90
5461;DHT22;2753;49.196;8.286;2022-08-21T08:00:50;23.20;68.60
5461;DHT22;2753;49.196;8.286;2022-08-21T08:03:15;23.30;68.00
5461;DHT22;2753;49.196;8.286;2022-08-21T08:05:41;23.50;67.90
5461;DHT22;2753;49.196;8.286;2022-08-21T08:08:07;23.60;66.60
5461;DHT22;2753;49.196;8.286;2022-08-21T08:10:33;23.40;66.40
5461;DHT22;2753;49.196;8.286;2022-08-21T08:12:58;23.40;67.30
5461;DHT22;2753;49.196;8.286;2022-08-21T08:15:26;23.50;66.90
5461;DHT22;2753;49.196;8.286;2022-08-21T08:17:52;23.60;67.20
5461;DHT22;2753;49.196;8.286;2022-08-21T08:20:20;23.70;67.00
5461;DHT22;2753;49.196;8.286;2022-08-21T08:22:47;24.10;66.20
5461;DHT22;2753;49.196;8.286;2022-08-21T08:25:14;24.40;65.00
5461;DHT22;2753;49.196;8.286;2022-08-21T08:27:40;24.50;65.20
5461;DHT22;2753;49.196;8.286;2022-08-21T08:30:08;24.40;64.40
5461;DHT22;2753;49.196;8.286;2022-08-21T08:32:34;24.40;64.60
5461;DHT22;2753;49.196;8.286;2022-08-21T08:35:00;24.30;63.80
5461;DHT22;2753;49.196;8.286;2022-08-21T08:37:26;24.30;63.70
5461;DHT22;2753;49.196;8.286;2022-08-21T08:39:51;24.40;64.40
5461;DHT22;2753;49.196;8.286;2022-08-21T08:42:23;24.50;64.10
5461;DHT22;2753;49.196;8.286;2022-08-21T08:45:15;24.70;63.70
5461;DHT22;2753;49.196;8.286;2022-08-21T08:47:47;24.90;63.70
5461;DHT22;2753;49.196;8.286;2022-08-21T08:50:23;25.10;62.70
5461;DHT22;2753;49.196;8.286;2022-08-21T08:53:01;25.30;62.60
5461;DHT22;2753;49.196;8.286;2022-08-21T08:55:42;25.50;61.60
5461;DHT22;2753;49.196;8.286;2022-08-21T08:58:18;25.50;61.00
5461;DHT22;2753;49.196;8.286;2022-08-21T09:00:47;25.50;61.20
5461;DHT22;2753;49.196;8.286;2022-08-21T09:03:15;25.40;60.50
5461;DHT22;2753;49.196;8.286;2022-08-21T09:06:11;25.30;61.10
5461;DHT22;2753;49.196;8.286;2022-08-21T09:09:06;25.50;60.70
5461;DHT22;2753;49.196;8.286;2022-08-21T09:16:56;26.50;59.20
5461;DHT22;2753;49.196;8.286;2022-08-21T09:22:23;26.20;58.80
5461;DHT22;2753;49.196;8.286;2022-08-21T09:27:29;26.20;59.70
5461;DHT22;2753;49.196;8.286;2022-08-21T09:29:55;26.40;59.80
5461;DHT22;2753;49.196;8.286;2022-08-21T09:32:29;26.60;58.20
5461;DHT22;2753;49.196;8.286;2022-08-21T09:35:10;26.10;58.10
5461;DHT22;2753;49.196;8.286;2022-08-21T09:38:06;26.00;58.80
5461;DHT22;2753;49.196;8.286;2022-08-21T09:43:05;26.40;58.80
5461;DHT22;2753;49.196;8.286;2022-08-21T09:45:32;26.50;58.50
5461;DHT22;2753;49.196;8.286;2022-08-21T09:48:22;26.50;57.60
5461;DHT22;2753;49.196;8.286;2022-08-21T09:50:49;26.70;58.10
5461;DHT22;2753;49.196;8.286;2022-08-21T09:53:19;26.70;57.70
5461;DHT22;2753;49.196;8.286;2022-08-21T09:58:34;26.50;57.90
5461;DHT22;2753;49.196;8.286;2022-08-21T10:01:02;26.50;56.80
5461;DHT22;2753;49.196;8.286;2022-08-21T10:03:29;26.70;56.70
5461;DHT22;2753;49.196;8.286;2022-08-21T10:05:58;26.60;56.70
5461;DHT22;2753;49.196;8.286;2022-08-21T10:08:27;26.40;56.50
5461;DHT22;2753;49.196;8.286;2022-08-21T10:11:12;26.50;56.80
5461;DHT22;2753;49.196;8.286;2022-08-21T10:22:04;26.50;56.80
5461;DHT22;2753;49.196;8.286;2022-08-21T10:24:36;26.40;56.60
5461;DHT22;2753;49.196;8.286;2022-08-21T10:30:03;26.50;56.60
5461;DHT22;2753;49.196;8.286;2022-08-21T10:35:28;26.70;56.60
5461;DHT22;2753;49.196;8.286;2022-08-21T10:40:54;26.60;56.80
5461;DHT22;2753;49.196;8.286;2022-08-21T10:46:14;26.70;56.20
5461;DHT22;2753;49.196;8.286;2022-08-21T10:48:46;26.80;56.30
5461;DHT22;2753;49.196;8.286;2022-08-21T10:56:41;26.90;55.10
5461;DHT22;2753;49.196;8.286;2022-08-21T11:07:39;26.90;54.90
5461;DHT22;2753;49.196;8.286;2022-08-21T11:10:19;26.90;54.10
5461;DHT22;2753;49.196;8.286;2022-08-21T11:12:56;26.90;53.70
5461;DHT22;2753;49.196;8.286;2022-08-21T11:15:35;26.80;53.70
5461;DHT22;2753;49.196;8.286;2022-08-21T11:18:27;26.90;53.10
5461;DHT22;2753;49.196;8.286;2022-08-21T11:23:55;27.00;53.90
5461;DHT22;2753;49.196;8.286;2022-08-21T11:29:08;27.00;53.70
5461;DHT22;2753;49.196;8.286;2022-08-21T11:37:15;27.10;53.60
5461;DHT22;2753;49.196;8.286;2022-08-21T11:42:35;27.10;52.30
5461;DHT22;2753;49.196;8.286;2022-08-21T11:45:27;27.10;52.90
5461;DHT22;2753;49.196;8.286;2022-08-21T11:50:40;27.30;52.60
5461;DHT22;2753;49.196;8.286;2022-08-21T11:53:28;27.40;52.10
5461;DHT22;2753;49.196;8.286;2022-08-21T11:56:04;27.40;51.00
5461;DHT22;2753;49.196;8.286;2022-08-21T11:58:36;27.40;51.60
5461;DHT22;2753;49.196;8.286;2022-08-21T12:01:08;27.40;50.40
5461;DHT22;2753;49.196;8.286;2022-08-21T12:03:51;27.40;51.00
5461;DHT22;2753;49.196;8.286;2022-08-21T12:06:29;27.30;50.30
5461;DHT22;2753;49.196;8.286;2022-08-21T12:09:05;27.20;50.80
5461;DHT22;2753;49.196;8.286;2022-08-21T12:11:32;27.20;51.70
5461;DHT22;2753;49.196;8.286;2022-08-21T12:16:38;27.30;50.10
5461;DHT22;2753;49.196;8.286;2022-08-21T12:19:10;27.40;50.60
5461;DHT22;2753;49.196;8.286;2022-08-21T12:21:50;27.40;50.60
5461;DHT22;2753;49.196;8.286;2022-08-21T12:24:19;27.40;50.60
5461;DHT22;2753;49.196;8.286;2022-08-21T12:26:56;27.50;50.30
5461;DHT22;2753;49.196;8.286;2022-08-21T12:29:23;27.60;50.00
5461;DHT22;2753;49.196;8.286;2022-08-21T12:34:22;27.70;48.30
5461;DHT22;2753;49.196;8.286;2022-08-21T12:36:54;27.70;48.80
5461;DHT22;2753;49.196;8.286;2022-08-21T12:39:27;27.60;48.40
5461;DHT22;2753;49.196;8.286;2022-08-21T12:42:24;27.60;49.40
5461;DHT22;2753;49.196;8.286;2022-08-21T12:45:03;27.60;49.10
5461;DHT22;2753;49.196;8.286;2022-08-21T12:50:35;27.70;48.00
5461;DHT22;2753;49.196;8.286;2022-08-21T12:53:09;27.70;48.60
5461;DHT22;2753;49.196;8.286;2022-08-21T12:55:41;27.70;48.90
5461;DHT22;2753;49.196;8.286;2022-08-21T12:58:23;27.70;48.20
5461;DHT22;2753;49.196;8.286;2022-08-21T13:01:29;27.50;47.50
5461;DHT22;2753;49.196;8.286;2022-08-21T13:03:59;27.70;47.90
5461;DHT22;2753;49.196;8.286;2022-08-21T13:06:30;27.80;47.80
5461;DHT22;2753;49.196;8.286;2022-08-21T13:09:03;27.80;47.50
5461;DHT22;2753;49.196;8.286;2022-08-21T13:11:29;27.80;47.70
5461;DHT22;2753;49.196;8.286;2022-08-21T13:13:57;27.80;47.70
5461;DHT22;2753;49.196;8.286;2022-08-21T13:16:28;27.80;47.60
5461;DHT22;2753;49.196;8.286;2022-08-21T13:18:59;27.80;47.40
5461;DHT22;2753;49.196;8.286;2022-08-21T13:21:38;27.90;47.60
5461;DHT22;2753;49.196;8.286;2022-08-21T13:26:36;27.90;47.70
5461;DHT22;2753;49.196;8.286;2022-08-21T13:29:10;27.90;46.20
5461;DHT22;2753;49.196;8.286;2022-08-21T13:31:37;27.90;47.30
5461;DHT22;2753;49.196;8.286;2022-08-21T13:34:05;28.00;47.80
5461;DHT22;2753;49.196;8.286;2022-08-21T13:36:35;28.00;47.80
5461;DHT22;2753;49.196;8.286;2022-08-21T13:39:04;28.00;47.90
5461;DHT22;2753;49.196;8.286;2022-08-21T13:41:34;27.90;47.90
5461;DHT22;2753;49.196;8.286;2022-08-21T13:46:56;28.10;46.10
5461;DHT22;2753;49.196;8.286;2022-08-21T13:49:35;28.10;45.50
5461;DHT22;2753;49.196;8.286;2022-08-21T13:52:03;28.20;45.00
5461;DHT22;2753;49.196;8.286;2022-08-21T13:54:35;28.10;44.50
5461;DHT22;2753;49.196;8.286;2022-08-21T13:57:01;28.00;44.50
5461;DHT22;2753;49.196;8.286;2022-08-21T13:59:29;28.00;45.20
5461;DHT22;2753;49.196;8.286;2022-08-21T14:01:59;27.90;45.50
5461;DHT22;2753;49.196;8.286;2022-08-21T14:04:37;28.00;45.70
5461;DHT22;2753;49.196;8.286;2022-08-21T14:07:18;28.10;45.90
5461;DHT22;2753;49.196;8.286;2022-08-21T14:09:46;28.10;45.70
5461;DHT22;2753;49.196;8.286;2022-08-21T14:12:25;28.10;46.30
5461;DHT22;2753;49.196;8.286;2022-08-21T14:14:53;28.20;45.80
5461;DHT22;2753;49.196;8.286;2022-08-21T14:17:32;28.30;45.90
5461;DHT22;2753;49.196;8.286;2022-08-21T14:19:58;28.30;46.60
5461;DHT22;2753;49.196;8.286;2022-08-21T14:25:06;28.30;46.60
5461;DHT22;2753;49.196;8.286;2022-08-21T14:27:42;28.30;47.20
5461;DHT22;2753;49.196;8.286;2022-08-21T14:30:14;28.30;46.30
5461;DHT22;2753;49.196;8.286;2022-08-21T14:32:41;28.20;46.00
5461;DHT22;2753;49.196;8.286;2022-08-21T14:35:07;28.10;46.50
5461;DHT22;2753;49.196;8.286;2022-08-21T14:37:34;28.10;45.50
5461;DHT22;2753;49.196;8.286;2022-08-21T14:40:00;28.20;46.10
5461;DHT22;2753;49.196;8.286;2022-08-21T14:42:26;28.30;46.40
5461;DHT22;2753;49.196;8.286;2022-08-21T14:44:55;28.30;46.60
5461;DHT22;2753;49.196;8.286;2022-08-21T14:47:22;28.30;46.60
5461;DHT22;2753;49.196;8.286;2022-08-21T14:49:48;28.40;46.50
5461;DHT22;2753;49.196;8.286;2022-08-21T14:52:14;28.40;46.60
5461;DHT22;2753;49.196;8.286;2022-08-21T14:54:39;28.40;46.80
5461;DHT22;2753;49.196;8.286;2022-08-21T14:57:08;28.40;46.40
5461;DHT22;2753;49.196;8.286;2022-08-21T14:59:35;28.40;46.80
5461;DHT22;2753;49.196;8.286;2022-08-21T15:02:02;28.40;46.40
5461;DHT22;2753;49.196;8.286;2022-08-21T15:04:29;28.40;46.10
5461;DHT22;2753;49.196;8.286;2022-08-21T15:06:55;28.40;46.20
5461;DHT22;2753;49.196;8.286;2022-08-21T15:09:21;28.30;46.50
5461;DHT22;2753;49.196;8.286;2022-08-21T15:11:47;28.30;46.00
5461;DHT22;2753;49.196;8.286;2022-08-21T15:14:20;28.30;45.50
5461;DHT22;2753;49.196;8.286;2022-08-21T15:16:46;28.30;46.10
5461;DHT22;2753;49.196;8.286;2022-08-21T15:19:12;28.30;45.50
5461;DHT22;2753;49.196;8.286;2022-08-21T15:21:38;28.30;45.50
5461;DHT22;2753;49.196;8.286;2022-08-21T15:24:04;28.30;46.10
5461;DHT22;2753;49.196;8.286;2022-08-21T15:26:29;28.30;46.20
5461;DHT22;2753;49.196;8.286;2022-08-21T15:28:55;28.30;45.40
5461;DHT22;2753;49.196;8.286;2022-08-21T15:31:21;28.20;45.30
5461;DHT22;2753;49.196;8.286;2022-08-21T15:33:47;28.20;45.90
5461;DHT22;2753;49.196;8.286;2022-08-21T15:36:12;28.30;46.30
5461;DHT22;2753;49.196;8.286;2022-08-21T15:38:38;28.30;46.50
5461;DHT22;2753;49.196;8.286;2022-08-21T15:41:04;28.30;46.90
5461;DHT22;2753;49.196;8.286;2022-08-21T15:43:39;28.40;45.80
5461;DHT22;2753;49.196;8.286;2022-08-21T15:46:06;28.40;46.00
5461;DHT22;2753;49.196;8.286;2022-08-21T15:48:34;28.30;45.60
5461;DHT22;2753;49.196;8.286;2022-08-21T15:51:00;28.30;46.50
5461;DHT22;2753;49.196;8.286;2022-08-21T15:53:26;28.30;46.00
5461;DHT22;2753;49.196;8.286;2022-08-21T15:55:51;28.30;46.20
5461;DHT22;2753;49.196;8.286;2022-08-21T15:58:18;28.30;46.20
5461;DHT22;2753;49.196;8.286;2022-08-21T16:00:46;28.30;46.70
5461;DHT22;2753;49.196;8.286;2022-08-21T16:03:15;28.30;46.60
5461;DHT22;2753;49.196;8.286;2022-08-21T16:05:45;28.20;47.10
5461;DHT22;2753;49.196;8.286;2022-08-21T16:08:13;28.20;46.70
5461;DHT22;2753;49.196;8.286;2022-08-21T16:10:40;28.20;46.70
5461;DHT22;2753;49.196;8.286;2022-08-21T16:13:14;28.20;47.00
5461;DHT22;2753;49.196;8.286;2022-08-21T16:15:41;28.20;45.90
5461;DHT22;2753;49.196;8.286;2022-08-21T16:18:07;28.20;46.60
5461;DHT22;2753;49.196;8.286;2022-08-21T16:20:32;28.20;46.30
5461;DHT22;2753;49.196;8.286;2022-08-21T16:22:58;28.20;46.30
5461;DHT22;2753;49.196;8.286;2022-08-21T16:25:25;28.20;47.00
5461;DHT22;2753;49.196;8.286;2022-08-21T16:27:55;28.20;46.70
5461;DHT22;2753;49.196;8.286;2022-08-21T16:30:22;28.20;46.90
5461;DHT22;2753;49.196;8.286;2022-08-21T16:32:48;28.10;47.40
5461;DHT22;2753;49.196;8.286;2022-08-21T16:35:16;28.20;47.10
5461;DHT22;2753;49.196;8.286;2022-08-21T16:37:43;28.20;46.70
5461;DHT22;2753;49.196;8.286;2022-08-21T16:40:09;28.10;46.20
5461;DHT22;2753;49.196;8.286;2022-08-21T16:42:36;28.10;46.50
5461;DHT22;2753;49.196;8.286;2022-08-21T16:45:05;28.10;47.10
5461;DHT22;2753;49.196;8.286;2022-08-21T16:47:32;28.00;46.40
5461;DHT22;2753;49.196;8.286;2022-08-21T16:49:57;28.00;46.40
5461;DHT22;2753;49.196;8.286;2022-08-21T16:52:23;27.90;46.00
5461;DHT22;2753;49.196;8.286;2022-08-21T16:54:49;27.90;47.10
5461;DHT22;2753;49.196;8.286;2022-08-21T16:57:15;27.90;46.90
5461;DHT22;2753;49.196;8.286;2022-08-21T16:59:41;27.90;46.50
5461;DHT22;2753;49.196;8.286;2022-08-21T17:02:20;27.80;46.60
5461;DHT22;2753;49.196;8.286;2022-08-21T17:04:47;27.80;46.50
5461;DHT22;2753;49.196;8.286;2022-08-21T17:07:12;27.80;46.40
5461;DHT22;2753;49.196;8.286;2022-08-21T17:09:38;27.80;46.50
5461;DHT22;2753;49.196;8.286;2022-08-21T17:12:04;27.70;46.40
5461;DHT22;2753;49.196;8.286;2022-08-21T17:14:30;27.70;46.60
5461;DHT22;2753;49.196;8.286;2022-08-21T17:16:56;27.70;47.40
5461;DHT22;2753;49.196;8.286;2022-08-21T17:19:22;27.70;47.80
5461;DHT22;2753;49.196;8.286;2022-08-21T17:21:48;27.70;47.90
5461;DHT22;2753;49.196;8.286;2022-08-21T17:24:14;27.70;48.00
5461;DHT22;2753;49.196;8.286;2022-08-21T17:26:41;27.70;47.50
5461;DHT22;2753;49.196;8.286;2022-08-21T17:29:07;27.60;47.50
5461;DHT22;2753;49.196;8.286;2022-08-21T17:31:35;27.60;47.00
5461;DHT22;2753;49.196;8.286;2022-08-21T17:34:02;27.50;47.30
5461;DHT22;2753;49.196;8.286;2022-08-21T17:36:29;27.40;47.30
5461;DHT22;2753;49.196;8.286;2022-08-21T17:38:56;27.40;47.60
5461;DHT22;2753;49.196;8.286;2022-08-21T17:41:22;27.40;47.70
5461;DHT22;2753;49.196;8.286;2022-08-21T17:43:48;27.40;48.00
5461;DHT22;2753;49.196;8.286;2022-08-21T17:46:21;27.40;48.10
5461;DHT22;2753;49.196;8.286;2022-08-21T17:48:48;27.40;49.00
5461;DHT22;2753;49.196;8.286;2022-08-21T17:51:14;27.30;49.40
5461;DHT22;2753;49.196;8.286;2022-08-21T17:53:40;27.30;49.80
5461;DHT22;2753;49.196;8.286;2022-08-21T17:56:07;27.30;50.00
5461;DHT22;2753;49.196;8.286;2022-08-21T17:58:33;27.30;50.30
5461;DHT22;2753;49.196;8.286;2022-08-21T18:01:00;27.20;50.30
5461;DHT22;2753;49.196;8.286;2022-08-21T18:03:28;27.20;50.50
5461;DHT22;2753;49.196;8.286;2022-08-21T18:05:55;27.20;50.60
5461;DHT22;2753;49.196;8.286;2022-08-21T18:08:21;27.20;50.70
5461;DHT22;2753;49.196;8.286;2022-08-21T18:10:49;27.20;50.80